createdAt,value
2017-12-15T00:00:37.444Z,5.90
2017-12-15T00:03:05.082Z,5.90
2017-12-15T00:05:32.655Z,5.90
2017-12-15T00:08:00.207Z,5.80
2017-12-15T00:10:27.881Z,5.80
2017-12-15T00:12:55.455Z,5.80
2017-12-15T00:15:23.026Z,5.70
2017-12-15T00:17:50.612Z,5.70
2017-12-15T00:20:18.950Z,5.60
2017-12-15T00:22:46.566Z,5.60
2017-12-15T00:25:14.171Z,5.60
2017-12-15T00:27:41.774Z,5.50
2017-12-15T00:30:10.104Z,5.50
2017-12-15T00:32:37.685Z,5.50
2017-12-15T00:35:05.299Z,5.50
2017-12-15T00:37:32.878Z,5.40
2017-12-15T00:40:00.468Z,5.40
2017-12-15T00:42:28.046Z,5.50
2017-12-15T00:44:56.407Z,5.50
2017-12-15T00:47:24.001Z,5.40
2017-12-15T00:49:51.574Z,5.40
2017-12-15T00:52:19.207Z,5.50
2017-12-15T00:54:47.590Z,5.40
2017-12-15T00:57:15.939Z,5.40
2017-12-15T00:59:43.508Z,5.40
2017-12-15T01:02:11.102Z,5.40
2017-12-15T01:04:39.436Z,5.20
2017-12-15T01:07:07.006Z,5.20
2017-12-15T01:09:34.561Z,5.10
2017-12-15T01:12:02.143Z,5.00
2017-12-15T01:14:29.723Z,4.90
2017-12-15T01:16:57.299Z,4.90
2017-12-15T01:19:24.876Z,4.80
2017-12-15T01:21:52.453Z,4.70
2017-12-15T01:24:20.022Z,4.60
2017-12-15T01:26:47.566Z,4.50
2017-12-15T01:29:15.890Z,4.30
2017-12-15T01:31:44.233Z,4.30
2017-12-15T01:34:11.810Z,4.30
2017-12-15T01:36:39.374Z,4.20
2017-12-15T01:39:07.703Z,4.10
2017-12-15T01:41:35.284Z,4.10
2017-12-15T01:44:02.875Z,4.20
2017-12-15T01:46:30.458Z,4.20
2017-12-15T01:48:58.052Z,4.20
2017-12-15T01:51:25.621Z,4.30
2017-12-15T01:53:53.414Z,4.30
2017-12-15T01:56:20.982Z,4.10
2017-12-15T01:58:48.541Z,4.00
2017-12-15T02:01:16.102Z,3.90
2017-12-15T02:03:43.683Z,3.90
2017-12-15T02:06:12.013Z,3.80
2017-12-15T02:08:39.631Z,3.80
2017-12-15T02:11:07.203Z,3.80
2017-12-15T02:13:34.807Z,3.80
2017-12-15T02:16:02.357Z,3.70
2017-12-15T02:18:29.914Z,3.70
2017-12-15T02:20:57.489Z,3.60
2017-12-15T02:23:25.076Z,3.60
2017-12-15T02:25:53.405Z,3.50
2017-12-15T02:28:20.989Z,3.50
2017-12-15T02:30:48.585Z,3.50
2017-12-15T02:33:16.922Z,3.20
2017-12-15T02:35:44.486Z,3.20
2017-12-15T02:38:12.057Z,3.20
2017-12-15T02:40:39.633Z,3.20
2017-12-15T02:43:07.978Z,3.20
2017-12-15T02:45:35.609Z,3.20
2017-12-15T02:48:03.182Z,3.20
2017-12-15T02:50:30.765Z,3.20
2017-12-15T02:52:58.333Z,3.20
2017-12-15T02:55:25.898Z,3.20
2017-12-15T02:57:53.472Z,3.10
2017-12-15T03:00:21.812Z,3.00
2017-12-15T03:02:49.369Z,3.00
2017-12-15T03:05:16.950Z,3.00
2017-12-15T03:07:44.570Z,3.10
2017-12-15T03:10:12.152Z,3.10
2017-12-15T03:12:39.729Z,3.10
2017-12-15T03:15:07.322Z,3.10
2017-12-15T03:17:34.921Z,3.10
2017-12-15T03:20:02.503Z,3.20
2017-12-15T03:22:30.076Z,3.10
2017-12-15T03:24:57.670Z,3.10
2017-12-15T03:27:26.036Z,3.20
2017-12-15T03:29:54.421Z,3.10
2017-12-15T03:32:22.018Z,3.10
2017-12-15T03:34:49.605Z,3.10
2017-12-15T03:37:17.186Z,3.10
2017-12-15T03:39:45.527Z,3.20
2017-12-15T03:42:13.111Z,3.20
2017-12-15T03:44:40.691Z,3.20
2017-12-15T03:47:08.256Z,3.30
2017-12-15T03:49:36.625Z,3.30
2017-12-15T03:52:04.189Z,3.30
2017-12-15T03:54:31.774Z,3.30
2017-12-15T03:57:00.109Z,3.40
2017-12-15T03:59:27.701Z,3.40
2017-12-15T04:01:56.027Z,3.30
2017-12-15T04:04:24.366Z,3.40
2017-12-15T04:06:52.706Z,3.40
2017-12-15T04:09:20.302Z,3.40
2017-12-15T04:11:48.665Z,3.40
2017-12-15T04:14:17.045Z,3.40
2017-12-15T04:16:45.366Z,3.50
2017-12-15T04:19:13.113Z,3.50
2017-12-15T04:21:40.655Z,3.50
2017-12-15T04:24:09.003Z,3.50
2017-12-15T04:26:36.558Z,3.60
2017-12-15T04:29:04.149Z,3.60
2017-12-15T04:31:32.467Z,3.60
2017-12-15T04:34:00.025Z,3.60
2017-12-15T04:36:27.636Z,3.60
2017-12-15T04:38:55.205Z,3.70
2017-12-15T04:41:23.558Z,3.80
2017-12-15T04:43:51.141Z,3.80
2017-12-15T04:46:18.735Z,3.80
2017-12-15T04:48:46.304Z,3.90
2017-12-15T04:51:13.865Z,3.90
2017-12-15T04:53:41.465Z,3.80
2017-12-15T04:56:09.038Z,3.90
2017-12-15T04:58:36.594Z,3.90
2017-12-15T05:01:04.155Z,3.90
2017-12-15T05:03:31.739Z,4.00
2017-12-15T05:06:00.082Z,4.00
2017-12-15T05:08:27.646Z,4.00
2017-12-15T05:10:55.211Z,4.00
2017-12-15T05:13:22.781Z,4.00
2017-12-15T05:15:50.388Z,4.10
2017-12-15T05:18:18.005Z,4.10
2017-12-15T05:20:45.546Z,4.10
2017-12-15T05:23:13.114Z,4.20
2017-12-15T05:25:40.708Z,4.10
2017-12-15T05:28:08.255Z,4.10
2017-12-15T05:30:36.628Z,4.20
2017-12-15T05:33:04.987Z,4.20
2017-12-15T05:35:32.565Z,4.20
2017-12-15T05:38:01.735Z,4.30
2017-12-15T05:40:29.328Z,4.30
2017-12-15T05:42:57.696Z,4.30
2017-12-15T05:45:25.258Z,4.30
2017-12-15T05:47:52.855Z,4.30
2017-12-15T05:50:20.445Z,4.40
2017-12-15T05:52:48.029Z,4.40
2017-12-15T05:55:15.623Z,4.40
2017-12-15T05:57:43.973Z,4.40
2017-12-15T06:00:11.559Z,4.40
2017-12-15T06:02:39.894Z,4.50
2017-12-15T06:05:07.475Z,4.40
2017-12-15T06:07:35.057Z,4.50
2017-12-15T06:10:03.385Z,4.50
2017-12-15T06:12:30.980Z,4.50
2017-12-15T06:14:58.564Z,4.50
2017-12-15T06:17:26.902Z,4.40
2017-12-15T06:19:54.499Z,4.40
2017-12-15T06:22:22.825Z,4.30
2017-12-15T06:24:50.425Z,4.40
2017-12-15T06:27:18.010Z,4.30
2017-12-15T06:29:46.336Z,4.40
2017-12-15T06:32:13.928Z,4.30
2017-12-15T06:34:41.518Z,4.40
2017-12-15T06:37:09.096Z,4.40
2017-12-15T06:39:36.697Z,4.40
2017-12-15T06:42:04.512Z,4.40
2017-12-15T06:44:32.133Z,4.40
2017-12-15T06:46:59.712Z,4.50
2017-12-15T06:49:27.289Z,4.50
2017-12-15T06:51:54.915Z,4.40
2017-12-15T06:54:22.474Z,4.50
2017-12-15T06:56:51.990Z,4.50
2017-12-15T06:59:19.577Z,4.50
2017-12-15T07:01:47.185Z,4.50
2017-12-15T07:04:14.746Z,4.40
2017-12-15T07:06:42.321Z,4.50
2017-12-15T07:09:09.910Z,4.50
2017-12-15T07:11:37.513Z,4.50
2017-12-15T07:14:05.113Z,4.50
2017-12-15T07:16:32.790Z,4.50
2017-12-15T07:19:00.398Z,4.50
2017-12-15T07:21:28.099Z,4.50
2017-12-15T07:23:56.521Z,4.50
2017-12-15T07:26:24.859Z,4.50
2017-12-15T07:28:52.483Z,4.50
2017-12-15T07:31:20.087Z,4.50
2017-12-15T07:33:47.665Z,4.50
2017-12-15T07:36:15.250Z,4.50
2017-12-15T07:38:43.600Z,4.50
2017-12-15T07:41:11.203Z,4.50
2017-12-15T07:43:38.998Z,4.50
2017-12-15T07:46:06.550Z,4.40
2017-12-15T07:48:34.128Z,4.40
2017-12-15T07:51:02.899Z,4.40
2017-12-15T07:53:30.580Z,4.30
2017-12-15T07:55:58.930Z,4.30
2017-12-15T07:58:26.479Z,4.30
2017-12-15T08:00:54.565Z,4.30
2017-12-15T08:03:22.212Z,4.30
2017-12-15T08:05:50.564Z,4.20
2017-12-15T08:08:18.136Z,4.20
2017-12-15T08:10:45.786Z,4.20
2017-12-15T08:13:13.331Z,4.20
2017-12-15T08:15:40.915Z,4.10
2017-12-15T08:18:12.550Z,4.10
2017-12-15T08:20:41.428Z,4.20
2017-12-15T08:23:08.996Z,4.20
2017-12-15T08:25:36.584Z,4.10
2017-12-15T08:28:04.213Z,4.10
2017-12-15T08:30:31.843Z,4.20
2017-12-15T08:32:59.434Z,4.20
2017-12-15T08:35:29.645Z,4.20
2017-12-15T08:37:57.219Z,4.20
2017-12-15T08:40:24.778Z,4.30
2017-12-15T08:42:55.445Z,4.20
2017-12-15T08:45:23.022Z,4.20
2017-12-15T08:47:50.632Z,4.30
2017-12-15T08:50:18.202Z,4.20
2017-12-15T08:52:45.802Z,4.30
2017-12-15T08:55:13.367Z,4.20
2017-12-15T08:57:41.007Z,4.30
2017-12-15T09:00:08.589Z,4.30
2017-12-15T09:02:36.139Z,4.30
2017-12-15T09:05:03.709Z,4.30
2017-12-15T09:07:31.282Z,4.30
2017-12-15T09:09:59.616Z,4.50
2017-12-15T09:12:27.181Z,4.50
2017-12-15T09:14:54.762Z,4.50
2017-12-15T09:17:22.311Z,4.60
2017-12-15T09:19:49.915Z,4.60
2017-12-15T09:22:18.233Z,4.80
2017-12-15T09:24:45.817Z,4.80
2017-12-15T09:27:13.377Z,4.80
2017-12-15T09:29:40.939Z,4.80
2017-12-15T09:32:08.548Z,4.90
2017-12-15T09:34:36.101Z,5.00
2017-12-15T09:37:03.679Z,5.00
2017-12-15T09:39:31.266Z,5.10
2017-12-15T09:41:58.846Z,5.20
2017-12-15T09:44:26.428Z,5.30
2017-12-15T09:46:53.993Z,5.60
2017-12-15T09:49:21.558Z,5.70
2017-12-15T09:51:49.156Z,5.90
2017-12-15T09:54:16.719Z,6.10
2017-12-15T09:56:44.303Z,6.10
2017-12-15T09:59:11.900Z,6.10
2017-12-15T10:01:39.494Z,6.20
2017-12-15T10:04:07.121Z,6.20
2017-12-15T10:06:34.678Z,6.20
2017-12-15T10:09:02.254Z,6.40
2017-12-15T10:11:29.816Z,6.40
2017-12-15T10:13:57.403Z,6.40
2017-12-15T10:16:25.020Z,6.30
2017-12-15T10:18:52.593Z,6.20
2017-12-15T10:21:20.141Z,6.20
2017-12-15T10:23:47.711Z,6.20
2017-12-15T10:26:15.288Z,6.30
2017-12-15T10:28:42.868Z,6.40
2017-12-15T10:31:10.446Z,6.50
2017-12-15T10:33:38.047Z,6.50
2017-12-15T10:36:05.608Z,6.60
2017-12-15T10:38:33.207Z,6.70
2017-12-15T10:41:00.799Z,6.50
2017-12-15T10:43:29.535Z,6.50
2017-12-15T10:45:57.120Z,6.50
2017-12-15T10:48:28.798Z,6.50
2017-12-15T10:50:56.380Z,6.30
2017-12-15T10:53:24.731Z,6.00
2017-12-15T10:55:52.302Z,5.90
2017-12-15T10:58:19.858Z,5.80
2017-12-15T11:00:47.489Z,5.70
2017-12-15T11:03:15.153Z,5.70
2017-12-15T11:05:42.768Z,6.00
2017-12-15T11:08:11.204Z,6.10
2017-12-15T11:10:38.790Z,6.10
2017-12-15T11:13:06.415Z,6.20
2017-12-15T11:15:34.006Z,6.00
2017-12-15T11:18:01.572Z,5.90
2017-12-15T11:20:29.210Z,5.80
2017-12-15T11:22:56.772Z,5.70
2017-12-15T11:25:24.333Z,5.70
2017-12-15T11:27:51.943Z,5.50
2017-12-15T11:30:19.502Z,5.50
2017-12-15T11:32:47.068Z,5.30
2017-12-15T11:35:14.644Z,5.10
2017-12-15T11:37:42.223Z,4.90
2017-12-15T11:40:09.792Z,4.80
2017-12-15T11:42:40.845Z,4.80
2017-12-15T11:45:08.402Z,4.80
2017-12-15T11:47:35.989Z,4.80
2017-12-15T11:50:03.594Z,4.80
2017-12-15T11:52:31.646Z,4.80
2017-12-15T11:54:59.978Z,4.70
2017-12-15T11:57:27.992Z,4.60
2017-12-15T11:59:55.657Z,4.60
